createdAt,value
2019-01-31T22:13:52.725Z,993.64
2019-01-31T22:14:54.161Z,993.61
2019-01-31T22:15:55.592Z,993.66
2019-01-31T22:16:57.016Z,993.65
2019-01-31T22:18:00.195Z,993.69
2019-01-31T22:18:59.935Z,993.69
2019-01-31T22:20:01.350Z,993.71
2019-01-31T22:21:02.760Z,993.74
2019-01-31T22:22:04.180Z,993.72
2019-01-31T22:23:05.619Z,993.68
2019-01-31T22:24:07.046Z,993.73
2019-01-31T22:25:08.450Z,993.70
2019-01-31T22:26:09.883Z,993.72
2019-01-31T22:27:11.295Z,993.69
2019-01-31T22:28:12.698Z,993.66
2019-01-31T22:29:14.130Z,993.67
2019-01-31T22:30:15.546Z,993.65
2019-01-31T22:31:16.969Z,993.65
2019-01-31T22:32:18.343Z,993.58
2019-01-31T22:33:19.746Z,993.61
2019-01-31T22:34:21.192Z,993.60
2019-01-31T22:35:22.573Z,993.65
2019-01-31T22:36:23.985Z,993.58
2019-01-31T22:37:25.445Z,993.59
2019-01-31T22:38:26.809Z,993.54
2019-01-31T22:39:28.222Z,993.57
2019-01-31T22:40:29.690Z,993.56
2019-01-31T22:41:31.153Z,993.56
2019-01-31T22:42:32.609Z,993.61
2019-01-31T22:43:34.151Z,993.59
2019-01-31T22:44:35.610Z,993.59
2019-01-31T22:45:37.766Z,993.59
2019-01-31T22:46:39.240Z,993.57
2019-01-31T22:47:40.677Z,993.61
2019-01-31T22:48:42.089Z,993.58
2019-01-31T22:49:43.494Z,993.55
2019-01-31T22:50:45.003Z,993.54
2019-01-31T22:51:46.390Z,993.55
2019-01-31T22:52:48.544Z,993.60
2019-01-31T22:53:51.513Z,993.56
2019-01-31T22:54:53.083Z,993.50
2019-01-31T22:55:54.468Z,993.55
2019-01-31T22:56:55.872Z,993.47
2019-01-31T22:57:57.315Z,993.52
2019-01-31T22:58:58.726Z,993.51
2019-01-31T23:00:00.306Z,993.44
2019-01-31T23:01:01.514Z,993.47
2019-01-31T23:02:02.984Z,993.41
2019-01-31T23:03:04.386Z,993.39
2019-01-31T23:04:05.923Z,993.44
2019-01-31T23:05:07.354Z,993.35
2019-01-31T23:06:08.837Z,993.37
2019-01-31T23:07:10.517Z,993.31
2019-01-31T23:08:11.923Z,993.31
2019-01-31T23:09:13.340Z,993.37
2019-01-31T23:10:14.737Z,993.33
2019-01-31T23:11:16.135Z,993.28
2019-01-31T23:12:17.554Z,993.30
2019-01-31T23:13:18.981Z,993.31
2019-01-31T23:14:20.366Z,993.29
2019-01-31T23:15:21.784Z,993.32
2019-01-31T23:16:23.207Z,993.31
2019-01-31T23:17:24.593Z,993.31
2019-01-31T23:18:26.014Z,993.27
2019-01-31T23:19:27.417Z,993.31
2019-01-31T23:20:28.821Z,993.32
2019-01-31T23:21:30.268Z,993.27
2019-01-31T23:22:31.692Z,993.32
2019-01-31T23:23:33.106Z,993.29
2019-01-31T23:24:34.526Z,993.30
2019-01-31T23:25:40.233Z,993.30
2019-01-31T23:26:37.314Z,993.31
2019-01-31T23:27:38.724Z,993.28
2019-01-31T23:28:40.133Z,993.29
2019-01-31T23:29:41.538Z,993.28
2019-01-31T23:30:42.900Z,993.29
2019-01-31T23:31:44.302Z,993.26
2019-01-31T23:32:45.710Z,993.23
2019-01-31T23:33:47.096Z,993.25
2019-01-31T23:34:48.499Z,993.27
2019-01-31T23:35:49.897Z,993.25
2019-01-31T23:36:51.309Z,993.21
2019-01-31T23:37:52.716Z,993.24
2019-01-31T23:38:54.111Z,993.21
2019-01-31T23:39:55.515Z,993.19
2019-01-31T23:40:56.907Z,993.19
2019-01-31T23:41:58.303Z,993.16
2019-01-31T23:42:59.711Z,993.09
2019-01-31T23:44:01.111Z,993.13
2019-01-31T23:45:02.530Z,993.09
2019-01-31T23:46:03.922Z,993.09
2019-01-31T23:47:05.409Z,993.08
2019-01-31T23:48:06.695Z,993.02
2019-01-31T23:49:08.090Z,993.04
2019-01-31T23:50:09.496Z,993.05
2019-01-31T23:51:10.885Z,993.01
2019-01-31T23:52:12.292Z,993.04
2019-01-31T23:53:13.696Z,993.01
2019-01-31T23:54:15.106Z,993.00
2019-01-31T23:55:16.513Z,993.00
2019-01-31T23:56:17.904Z,993.04
2019-01-31T23:57:19.328Z,992.97
2019-01-31T23:58:20.732Z,992.98
2019-01-31T23:59:22.134Z,992.93
